createdAt,value
2023-03-04T00:01:04.150Z,3.35
2023-03-04T00:03:33.823Z,3.39
2023-03-04T00:06:03.134Z,3.44
2023-03-04T00:08:34.261Z,3.36
2023-03-04T00:11:03.622Z,3.43
2023-03-04T00:13:33.227Z,3.42
2023-03-04T00:16:02.619Z,3.48
2023-03-04T00:18:32.290Z,3.46
2023-03-04T00:21:01.715Z,3.49
2023-03-04T00:23:31.430Z,3.56
2023-03-04T00:26:02.193Z,3.57
2023-03-04T00:28:31.890Z,3.51
2023-03-04T00:31:01.135Z,3.58
2023-03-04T00:33:30.877Z,3.60
2023-03-04T00:36:00.183Z,3.58
2023-03-04T00:38:30.700Z,3.60
2023-03-04T00:41:01.472Z,3.64
2023-03-04T00:43:32.223Z,3.62
2023-03-04T00:46:01.985Z,3.66
2023-03-04T00:48:32.959Z,3.69
2023-03-04T00:51:02.635Z,3.71
2023-03-04T00:53:32.278Z,3.67
2023-03-04T00:56:03.091Z,3.64
2023-03-04T00:58:33.821Z,3.71
2023-03-04T01:01:03.230Z,3.68
2023-03-04T01:03:33.244Z,3.70
2023-03-04T01:06:02.656Z,3.76
2023-03-04T01:08:32.297Z,3.70
2023-03-04T01:11:03.084Z,3.75
2023-03-04T01:13:33.291Z,3.79
2023-03-04T01:16:03.569Z,3.79
2023-03-04T01:18:33.889Z,3.78
2023-03-04T01:21:03.378Z,3.71
2023-03-04T01:23:33.107Z,3.76
2023-03-04T01:26:04.158Z,3.78
2023-03-04T01:28:36.000Z,3.78
2023-03-04T01:31:05.777Z,3.75
2023-03-04T01:33:35.346Z,3.74
2023-03-04T01:36:05.909Z,3.76
2023-03-04T01:38:35.580Z,3.72
2023-03-04T01:41:07.561Z,3.71
2023-03-04T01:43:39.214Z,3.80
2023-03-04T01:46:10.729Z,3.83
2023-03-04T01:48:41.027Z,3.79
2023-03-04T01:51:16.273Z,3.81
2023-03-04T01:53:47.810Z,3.86
2023-03-04T01:56:23.418Z,3.90
2023-03-04T01:59:09.581Z,3.92
2023-03-04T02:01:40.244Z,3.91
2023-03-04T02:04:10.663Z,3.96
2023-03-04T02:06:42.102Z,3.85
2023-03-04T02:09:12.649Z,3.86
2023-03-04T02:11:43.929Z,3.94
2023-03-04T02:14:14.821Z,3.96
2023-03-04T02:16:45.136Z,3.85
2023-03-04T02:19:20.915Z,3.84
2023-03-04T02:21:50.313Z,3.86
2023-03-04T02:24:27.108Z,3.94
2023-03-04T02:26:57.968Z,3.92
2023-03-04T02:29:27.720Z,3.97
2023-03-04T02:31:58.772Z,3.98
2023-03-04T02:34:32.733Z,3.94
2023-03-04T02:37:03.016Z,3.95
2023-03-04T02:39:36.394Z,3.87
2023-03-04T02:42:07.996Z,3.94
2023-03-04T02:44:39.877Z,3.94
2023-03-04T02:47:11.862Z,3.95
2023-03-04T02:49:42.651Z,3.93
2023-03-04T02:52:14.420Z,3.85
2023-03-04T02:54:44.201Z,3.89
2023-03-04T02:57:16.470Z,3.88
2023-03-04T02:59:49.586Z,3.91
2023-03-04T03:02:23.171Z,3.85
2023-03-04T03:04:54.081Z,3.82
2023-03-04T03:07:23.924Z,3.76
2023-03-04T03:09:53.531Z,3.79
2023-03-04T03:12:24.237Z,3.79
2023-03-04T03:14:54.156Z,3.79
2023-03-04T03:17:25.186Z,3.78
2023-03-04T03:19:54.935Z,3.77
2023-03-04T03:22:24.332Z,3.76
2023-03-04T03:24:53.978Z,3.77
2023-03-04T03:27:24.775Z,3.75
2023-03-04T03:29:54.490Z,3.73
2023-03-04T03:32:23.849Z,3.72
2023-03-04T03:34:53.844Z,3.71
2023-03-04T03:37:23.321Z,3.66
2023-03-04T03:39:52.986Z,3.68
2023-03-04T03:42:23.748Z,3.68
2023-03-04T03:44:53.403Z,3.63
2023-03-04T03:47:22.670Z,3.65
2023-03-04T03:49:52.356Z,3.64
2023-03-04T03:52:21.734Z,3.66
2023-03-04T03:54:51.403Z,3.63
2023-03-04T03:57:20.663Z,3.64
2023-03-04T03:59:51.759Z,3.61
2023-03-04T04:02:21.146Z,3.50
2023-03-04T04:04:51.020Z,3.53
2023-03-04T04:07:20.692Z,3.51
2023-03-04T04:09:50.362Z,3.54
2023-03-04T04:12:20.725Z,3.48
2023-03-04T04:14:51.839Z,3.40
2023-03-04T04:17:21.250Z,3.46
2023-03-04T04:19:50.998Z,3.50
2023-03-04T04:22:21.886Z,3.50
2023-03-04T04:24:52.005Z,3.49
2023-03-04T04:27:21.437Z,3.44
2023-03-04T04:29:52.492Z,3.43
2023-03-04T04:32:21.785Z,3.34
2023-03-04T04:34:51.332Z,3.32
2023-03-04T04:37:20.625Z,3.31
2023-03-04T04:39:51.860Z,3.25
2023-03-04T04:42:21.191Z,3.23
2023-03-04T04:44:52.712Z,3.23
2023-03-04T04:47:22.138Z,3.15
2023-03-04T04:49:51.949Z,3.21
2023-03-04T04:52:21.295Z,3.17
2023-03-04T04:54:50.939Z,3.07
2023-03-04T04:57:20.320Z,3.00
2023-03-04T04:59:51.427Z,3.03
2023-03-04T05:02:20.775Z,3.04
2023-03-04T05:04:50.497Z,3.00
2023-03-04T05:07:20.650Z,3.07
2023-03-04T05:09:50.407Z,3.04
2023-03-04T05:12:19.732Z,2.99
2023-03-04T05:14:49.398Z,3.02
2023-03-04T05:17:20.311Z,3.05
2023-03-04T05:19:50.035Z,3.04
2023-03-04T05:22:19.421Z,3.00
2023-03-04T05:24:49.022Z,2.99
2023-03-04T05:27:18.417Z,2.95
2023-03-04T05:29:47.924Z,3.01
2023-03-04T05:32:17.320Z,3.00
2023-03-04T05:34:48.347Z,3.00
2023-03-04T05:37:17.751Z,2.98
2023-03-04T05:39:47.349Z,3.01
2023-03-04T05:42:16.671Z,2.99
2023-03-04T05:44:46.300Z,3.00
2023-03-04T05:47:15.739Z,3.09
2023-03-04T05:49:45.671Z,3.10
2023-03-04T05:52:16.420Z,3.07
2023-03-04T05:54:46.062Z,3.01
2023-03-04T05:57:15.590Z,3.01
2023-03-04T05:59:45.189Z,3.04
2023-03-04T06:02:14.624Z,2.98
2023-03-04T06:04:44.296Z,3.01
2023-03-04T06:07:15.133Z,2.97
2023-03-04T06:09:45.275Z,3.03
2023-03-04T06:12:14.628Z,3.05
2023-03-04T06:14:44.280Z,3.09
2023-03-04T06:17:13.840Z,3.10
2023-03-04T06:19:43.451Z,3.14
2023-03-04T06:22:12.974Z,3.16
2023-03-04T06:24:44.113Z,3.19
2023-03-04T06:27:13.608Z,3.16
2023-03-04T06:29:43.183Z,3.19
2023-03-04T06:32:12.549Z,3.21
2023-03-04T06:34:42.066Z,3.17
2023-03-04T06:37:11.353Z,3.23
2023-03-04T06:39:42.430Z,3.28
2023-03-04T06:42:11.732Z,3.29
2023-03-04T06:44:41.216Z,3.32
2023-03-04T06:47:10.846Z,3.32
2023-03-04T06:49:40.330Z,3.34
2023-03-04T06:52:11.337Z,3.36
2023-03-04T06:54:42.362Z,3.36
2023-03-04T06:57:11.634Z,3.39
2023-03-04T06:59:41.271Z,3.44
2023-03-04T07:02:12.993Z,3.40
2023-03-04T07:04:42.773Z,3.40
2023-03-04T07:07:13.226Z,3.45
2023-03-04T07:09:44.357Z,3.44
2023-03-04T07:12:13.741Z,3.48
2023-03-04T07:14:43.264Z,3.50
2023-03-04T07:17:12.532Z,3.51
2023-03-04T07:19:42.154Z,3.54
2023-03-04T07:22:11.447Z,3.57
2023-03-04T07:24:40.900Z,3.56
2023-03-04T07:27:11.521Z,3.55
2023-03-04T07:29:41.048Z,3.57
2023-03-04T07:32:11.054Z,3.59
2023-03-04T07:34:40.410Z,3.61
2023-03-04T07:37:09.563Z,3.61
2023-03-04T07:39:39.134Z,3.58
2023-03-04T07:42:08.413Z,3.63
2023-03-04T07:44:44.215Z,3.61
2023-03-04T07:47:13.536Z,3.63
2023-03-04T07:49:43.035Z,3.68
2023-03-04T07:52:14.398Z,3.69
2023-03-04T07:54:44.115Z,3.64
2023-03-04T07:57:13.479Z,3.62
2023-03-04T07:59:44.505Z,3.61
2023-03-04T08:02:16.696Z,3.62
2023-03-04T08:04:46.460Z,3.65
2023-03-04T08:07:15.779Z,3.68
2023-03-04T08:09:45.272Z,3.69
2023-03-04T08:12:14.582Z,3.72
2023-03-04T08:14:45.446Z,3.69
2023-03-04T08:17:14.882Z,3.71
2023-03-04T08:19:44.524Z,3.72
2023-03-04T08:22:14.224Z,3.71
2023-03-04T08:24:43.795Z,3.70
2023-03-04T08:27:13.009Z,3.76
2023-03-04T08:29:42.453Z,3.74
2023-03-04T08:32:13.045Z,3.73
2023-03-04T08:34:42.637Z,3.74
2023-03-04T08:37:11.792Z,3.70
2023-03-04T08:39:41.424Z,3.67
2023-03-04T08:42:10.787Z,3.67
2023-03-04T08:44:40.190Z,3.66
2023-03-04T08:47:10.410Z,3.66
2023-03-04T08:49:41.278Z,3.66
2023-03-04T08:52:10.462Z,3.68
2023-03-04T08:54:39.874Z,3.63
2023-03-04T08:57:09.058Z,3.73
2023-03-04T08:59:38.820Z,3.69
2023-03-04T09:02:08.154Z,3.68
2023-03-04T09:04:37.840Z,3.67
2023-03-04T09:07:09.046Z,3.68
2023-03-04T09:09:38.631Z,3.71
2023-03-04T09:12:08.081Z,3.72
2023-03-04T09:14:37.823Z,3.71
2023-03-04T09:17:07.288Z,3.73
2023-03-04T09:19:36.961Z,3.74
2023-03-04T09:22:07.540Z,3.69
2023-03-04T09:24:37.040Z,3.70
2023-03-04T09:27:06.239Z,3.70
2023-03-04T09:29:35.780Z,3.72
2023-03-04T09:32:04.900Z,3.76
2023-03-04T09:34:34.383Z,3.75
2023-03-04T09:37:03.521Z,3.75
2023-03-04T09:39:34.623Z,3.74
2023-03-04T09:42:05.644Z,3.78
2023-03-04T09:44:38.363Z,3.81
2023-03-04T09:47:12.571Z,3.81
2023-03-04T09:49:45.539Z,3.75
2023-03-04T09:52:28.471Z,3.74
2023-03-04T09:55:06.250Z,3.67
2023-03-04T09:57:50.061Z,3.64
2023-03-04T10:00:24.028Z,3.65
2023-03-04T10:03:13.698Z,3.63
2023-03-04T10:05:50.990Z,3.65
2023-03-04T10:08:43.020Z,3.70
2023-03-04T10:11:18.054Z,3.66
2023-03-04T10:13:58.915Z,3.70
2023-03-04T10:16:32.667Z,3.71
2023-03-04T10:19:11.222Z,3.70
2023-03-04T10:21:43.982Z,3.71
2023-03-04T10:24:15.293Z,3.70
2023-03-04T10:26:49.707Z,3.69
2023-03-04T10:29:21.590Z,3.70
2023-03-04T10:31:51.822Z,3.69
2023-03-04T10:34:21.095Z,3.70
2023-03-04T10:36:57.803Z,3.69
2023-03-04T10:39:30.724Z,3.72
2023-03-04T10:42:03.737Z,3.76
2023-03-04T10:44:34.946Z,3.78
2023-03-04T10:47:10.193Z,3.87
2023-03-04T10:49:53.140Z,3.97
2023-03-04T10:52:30.745Z,4.03
2023-03-04T10:55:01.834Z,4.11
2023-03-04T10:57:37.955Z,4.25
2023-03-04T11:00:25.918Z,4.32
2023-03-04T11:03:14.433Z,4.49
2023-03-04T11:05:43.630Z,4.68
2023-03-04T11:08:20.488Z,4.90
2023-03-04T11:10:52.240Z,5.07
2023-03-04T11:13:24.898Z,5.21
2023-03-04T11:15:58.531Z,5.42
2023-03-04T11:18:37.125Z,5.85
2023-03-04T11:21:09.194Z,6.11
2023-03-04T11:23:45.489Z,6.54
2023-03-04T11:26:18.013Z,6.95
2023-03-04T11:28:52.881Z,7.17
2023-03-04T11:31:28.542Z,7.22
2023-03-04T11:34:02.705Z,7.25
2023-03-04T11:36:41.791Z,7.30
2023-03-04T11:39:39.724Z,7.40
2023-03-04T11:42:22.130Z,7.59
2023-03-04T11:44:53.680Z,7.60
2023-03-04T11:47:43.194Z,7.69
2023-03-04T11:50:31.068Z,7.86
2023-03-04T11:53:27.636Z,7.99
2023-03-04T11:56:14.808Z,7.91
2023-03-04T11:59:10.998Z,8.17
2023-03-04T12:01:51.011Z,8.26
2023-03-04T12:04:36.328Z,8.29
2023-03-04T12:07:16.657Z,8.28
2023-03-04T12:09:59.053Z,8.36
2023-03-04T12:12:43.333Z,8.56
2023-03-04T12:15:21.119Z,8.27
2023-03-04T12:18:22.951Z,8.39
2023-03-04T12:21:11.506Z,8.43
2023-03-04T12:24:06.111Z,8.74
2023-03-04T12:26:41.619Z,8.68
2023-03-04T12:29:17.298Z,8.89
2023-03-04T12:31:51.520Z,8.86
2023-03-04T12:34:52.350Z,9.09
2023-03-04T12:37:43.930Z,8.64
2023-03-04T12:40:38.480Z,7.90
2023-03-04T12:43:33.383Z,7.51
2023-03-04T12:46:17.503Z,7.04
2023-03-04T12:48:54.400Z,6.78
2023-03-04T12:51:34.016Z,6.37
2023-03-04T12:54:21.516Z,6.29
2023-03-04T12:56:55.697Z,6.11
2023-03-04T12:59:27.772Z,5.81
2023-03-04T13:02:12.345Z,5.59
2023-03-04T13:04:54.727Z,5.46
2023-03-04T13:07:39.171Z,5.24
2023-03-04T13:10:14.078Z,5.09
2023-03-04T13:12:51.060Z,5.14
2023-03-04T13:15:33.235Z,5.16
2023-03-04T13:18:05.688Z,5.13
2023-03-04T13:20:39.582Z,5.10
2023-03-04T13:23:28.199Z,5.02
2023-03-04T13:26:23.967Z,4.97
2023-03-04T13:29:12.023Z,4.84
2023-03-04T13:32:01.067Z,4.76
2023-03-04T13:34:48.814Z,4.69
2023-03-04T13:37:34.160Z,4.70
2023-03-04T13:40:28.349Z,4.59
2023-03-04T13:43:26.161Z,4.44
2023-03-04T13:45:56.528Z,4.22
2023-03-04T13:48:33.411Z,4.07
2023-03-04T13:51:03.072Z,3.90
2023-03-04T13:53:42.356Z,3.93
2023-03-04T13:56:36.639Z,4.09
2023-03-04T13:59:25.749Z,4.18
2023-03-04T14:02:04.537Z,4.31
2023-03-04T14:04:36.215Z,4.31
2023-03-04T14:07:21.163Z,4.10
2023-03-04T14:09:59.081Z,3.95
2023-03-04T14:12:31.082Z,3.87
2023-03-04T14:15:02.923Z,3.85
2023-03-04T14:17:36.938Z,3.69
2023-03-04T14:20:20.511Z,3.63
2023-03-04T14:22:50.167Z,3.50
2023-03-04T14:25:24.291Z,3.45
2023-03-04T14:28:05.426Z,3.40
2023-03-04T14:30:43.297Z,3.36
2023-03-04T14:33:25.284Z,3.47
2023-03-04T14:35:57.692Z,3.39
2023-03-04T14:38:30.992Z,3.37
2023-03-04T14:41:04.228Z,3.40
2023-03-04T14:43:38.714Z,3.40
2023-03-04T14:46:13.552Z,3.28
2023-03-04T14:48:50.207Z,3.28
2023-03-04T14:51:38.216Z,3.27
2023-03-04T14:54:08.609Z,3.30
2023-03-04T14:56:37.851Z,3.23
2023-03-04T14:59:07.281Z,3.11
2023-03-04T15:01:38.903Z,3.09
2023-03-04T15:04:11.321Z,3.18
2023-03-04T15:06:49.425Z,3.09
2023-03-04T15:09:23.098Z,3.14
2023-03-04T15:11:55.919Z,3.07
2023-03-04T15:14:45.602Z,3.14
2023-03-04T15:17:30.107Z,3.04
2023-03-04T15:20:19.293Z,2.95
2023-03-04T15:23:03.837Z,3.00
2023-03-04T15:25:33.371Z,3.01
2023-03-04T15:28:05.107Z,3.02
2023-03-04T15:30:35.976Z,2.99
2023-03-04T15:33:11.419Z,3.02
2023-03-04T15:35:41.440Z,2.90
2023-03-04T15:38:13.644Z,2.76
2023-03-04T15:40:44.256Z,2.69
2023-03-04T15:43:17.074Z,2.63
2023-03-04T15:45:47.512Z,2.63
2023-03-04T15:48:19.114Z,2.56
2023-03-04T15:50:51.534Z,2.47
2023-03-04T15:53:28.365Z,2.37
2023-03-04T15:55:58.014Z,2.30
2023-03-04T15:58:27.605Z,2.18
2023-03-04T16:00:57.147Z,2.19
2023-03-04T16:03:27.921Z,2.19
2023-03-04T16:05:57.870Z,2.12
2023-03-04T16:08:27.424Z,2.04
2023-03-04T16:10:57.203Z,1.99
2023-03-04T16:13:26.391Z,1.93
2023-03-04T16:15:56.066Z,1.89
2023-03-04T16:18:26.678Z,1.90
2023-03-04T16:20:56.280Z,1.86
2023-03-04T16:23:26.387Z,1.85
2023-03-04T16:25:58.811Z,1.83
2023-03-04T16:28:28.022Z,1.81
2023-03-04T16:30:57.607Z,1.78
2023-03-04T16:33:28.250Z,1.79
2023-03-04T16:35:58.735Z,1.78
2023-03-04T16:38:33.271Z,1.72
2023-03-04T16:41:03.601Z,1.68
2023-03-04T16:43:32.932Z,1.69
2023-03-04T16:46:02.752Z,1.68
2023-03-04T16:48:33.353Z,1.62
2023-03-04T16:51:06.262Z,1.62
2023-03-04T16:53:38.401Z,1.54
2023-03-04T16:56:12.100Z,1.53
2023-03-04T16:58:41.466Z,1.49
2023-03-04T17:01:18.079Z,1.49
2023-03-04T17:03:49.151Z,1.45
2023-03-04T17:06:19.189Z,1.46
2023-03-04T17:08:48.547Z,1.45
2023-03-04T17:11:19.503Z,1.39
2023-03-04T17:13:49.754Z,1.39
2023-03-04T17:16:20.097Z,1.33
2023-03-04T17:18:51.162Z,1.33
2023-03-04T17:21:23.467Z,1.27
2023-03-04T17:23:53.616Z,1.24
2023-03-04T17:26:23.317Z,1.24
2023-03-04T17:28:53.065Z,1.20
2023-03-04T17:31:22.964Z,1.19
2023-03-04T17:33:53.738Z,1.17
2023-03-04T17:36:23.809Z,1.20
2023-03-04T17:38:52.966Z,1.20
2023-03-04T17:41:25.037Z,1.18
2023-03-04T17:43:56.968Z,1.13
2023-03-04T17:46:28.035Z,1.06
2023-03-04T17:49:00.290Z,1.07
2023-03-04T17:51:34.632Z,1.00
2023-03-04T17:54:05.794Z,0.93
2023-03-04T17:56:36.973Z,0.88
2023-03-04T17:59:08.203Z,0.86
2023-03-04T18:01:38.699Z,0.90
2023-03-04T18:04:10.320Z,0.89
2023-03-04T18:06:39.974Z,0.87
2023-03-04T18:09:09.534Z,0.77
2023-03-04T18:11:41.012Z,0.77
2023-03-04T18:14:12.249Z,0.81
2023-03-04T18:16:45.016Z,0.78
2023-03-04T18:19:18.300Z,0.74
2023-03-04T18:21:48.924Z,0.71
2023-03-04T18:24:18.074Z,0.64
2023-03-04T18:26:48.856Z,0.59
2023-03-04T18:29:18.175Z,0.56
2023-03-04T18:31:47.994Z,0.56
2023-03-04T18:34:18.729Z,0.50
2023-03-04T18:36:48.740Z,0.42
2023-03-04T18:39:17.918Z,0.35
2023-03-04T18:41:47.485Z,0.36
2023-03-04T18:44:16.713Z,0.32
2023-03-04T18:46:49.226Z,0.23
2023-03-04T18:49:21.709Z,0.30
2023-03-04T18:51:51.282Z,0.28
2023-03-04T18:54:20.795Z,0.30
2023-03-04T18:56:53.940Z,0.27
2023-03-04T18:59:31.377Z,0.22
2023-03-04T19:02:03.784Z,0.09
2023-03-04T19:04:34.575Z,0.07
2023-03-04T19:07:04.072Z,0.10
2023-03-04T19:09:33.175Z,0.10
2023-03-04T19:12:03.030Z,0.06
2023-03-04T19:14:32.218Z,0.01
2023-03-04T19:17:01.967Z,-0.08
2023-03-04T19:19:31.124Z,-0.04
2023-03-04T19:22:02.072Z,-0.07
2023-03-04T19:24:31.433Z,-0.06
2023-03-04T19:27:00.895Z,-0.09
2023-03-04T19:29:30.261Z,-0.08
2023-03-04T19:32:01.043Z,-0.06
2023-03-04T19:34:30.850Z,-0.04
2023-03-04T19:37:01.713Z,-0.04
2023-03-04T19:39:30.924Z,-0.07
2023-03-04T19:42:00.703Z,-0.05
2023-03-04T19:44:31.833Z,-0.14
2023-03-04T19:47:01.351Z,-0.17
2023-03-04T19:49:32.211Z,-0.17
2023-03-04T19:52:03.609Z,-0.16
2023-03-04T19:54:32.946Z,-0.17
2023-03-04T19:57:02.365Z,-0.19
2023-03-04T19:59:31.549Z,-0.20
2023-03-04T20:02:01.566Z,-0.23
2023-03-04T20:04:31.934Z,-0.19
2023-03-04T20:07:03.799Z,-0.24
2023-03-04T20:09:33.506Z,-0.23
2023-03-04T20:12:03.006Z,-0.18
2023-03-04T20:14:35.279Z,-0.22
2023-03-04T20:17:07.211Z,-0.22
2023-03-04T20:19:36.936Z,-0.26
2023-03-04T20:22:08.882Z,-0.32
2023-03-04T20:24:39.185Z,-0.33
2023-03-04T20:27:08.725Z,-0.32
2023-03-04T20:29:40.156Z,-0.34
2023-03-04T20:32:10.701Z,-0.36
2023-03-04T20:34:40.725Z,-0.41
2023-03-04T20:37:11.386Z,-0.43
2023-03-04T20:39:40.613Z,-0.41
2023-03-04T20:42:10.235Z,-0.42
2023-03-04T20:44:39.476Z,-0.50
2023-03-04T20:47:08.978Z,-0.50
2023-03-04T20:49:38.901Z,-0.51
2023-03-04T20:52:09.134Z,-0.53
2023-03-04T20:54:40.568Z,-0.56
2023-03-04T20:57:10.897Z,-0.53
2023-03-04T20:59:41.595Z,-0.67
2023-03-04T21:02:15.679Z,-0.60
2023-03-04T21:04:47.056Z,-0.59
2023-03-04T21:07:17.013Z,-0.54
2023-03-04T21:09:47.664Z,-0.59
2023-03-04T21:12:17.943Z,-0.50
2023-03-04T21:14:47.615Z,-0.54
2023-03-04T21:17:17.132Z,-0.51
2023-03-04T21:19:46.451Z,-0.56
2023-03-04T21:22:17.982Z,-0.61
2023-03-04T21:24:48.858Z,-0.61
2023-03-04T21:27:18.685Z,-0.56
2023-03-04T21:29:49.513Z,-0.54
2023-03-04T21:32:25.166Z,-0.59
2023-03-04T21:34:55.664Z,-0.57
2023-03-04T21:37:26.344Z,-0.54
2023-03-04T21:39:58.252Z,-0.55
2023-03-04T21:42:27.881Z,-0.56
2023-03-04T21:44:57.057Z,-0.53
2023-03-04T21:47:27.387Z,-0.52
2023-03-04T21:49:56.651Z,-0.62
2023-03-04T21:52:26.422Z,-0.61
2023-03-04T21:54:57.325Z,-0.57
2023-03-04T21:57:27.493Z,-0.58
2023-03-04T21:59:57.367Z,-0.59
2023-03-04T22:02:26.958Z,-0.61
2023-03-04T22:04:56.252Z,-0.76
2023-03-04T22:07:27.347Z,-0.69
2023-03-04T22:09:59.508Z,-0.61
2023-03-04T22:12:29.082Z,-0.64
2023-03-04T22:14:58.357Z,-0.66
2023-03-04T22:17:27.977Z,-0.65
2023-03-04T22:19:57.458Z,-0.74
2023-03-04T22:22:28.070Z,-0.66
2023-03-04T22:25:00.369Z,-0.67
2023-03-04T22:27:30.666Z,-0.70
2023-03-04T22:30:00.049Z,-0.66
2023-03-04T22:32:29.848Z,-0.67
2023-03-04T22:34:59.189Z,-0.72
2023-03-04T22:37:29.027Z,-0.72
2023-03-04T22:40:00.666Z,-0.66
2023-03-04T22:42:30.306Z,-0.70
2023-03-04T22:44:59.658Z,-0.65
2023-03-04T22:47:29.397Z,-0.69
2023-03-04T22:49:58.523Z,-0.70
2023-03-04T22:52:28.030Z,-0.73
2023-03-04T22:54:57.312Z,-0.66
2023-03-04T22:57:28.211Z,-0.81
2023-03-04T22:59:57.633Z,-0.77
2023-03-04T23:02:27.130Z,-0.81
2023-03-04T23:04:56.237Z,-0.75
2023-03-04T23:07:25.585Z,-0.74
2023-03-04T23:09:54.685Z,-0.72
2023-03-04T23:12:23.981Z,-0.73
2023-03-04T23:14:54.575Z,-0.77
2023-03-04T23:17:23.989Z,-0.77
2023-03-04T23:19:53.263Z,-0.80
2023-03-04T23:22:22.719Z,-0.77
2023-03-04T23:24:51.758Z,-0.77
2023-03-04T23:27:21.052Z,-0.74
2023-03-04T23:29:50.278Z,-0.66
2023-03-04T23:32:21.036Z,-0.72
2023-03-04T23:34:53.271Z,-0.66
2023-03-04T23:37:23.541Z,-0.83
2023-03-04T23:39:52.659Z,-0.75
2023-03-04T23:42:22.053Z,-0.74
2023-03-04T23:44:51.119Z,-0.70
2023-03-04T23:47:22.026Z,-0.72
2023-03-04T23:49:51.254Z,-0.70
2023-03-04T23:52:20.701Z,-0.78
2023-03-04T23:54:50.023Z,-0.75
2023-03-04T23:57:19.425Z,-0.71
2023-03-04T23:59:48.628Z,-0.72
